createdAt,value
2018-04-16T00:00:48.541Z,23.80
2018-04-16T00:03:18.934Z,23.80
2018-04-16T00:05:49.241Z,23.80
2018-04-16T00:08:19.819Z,23.80
2018-04-16T00:10:50.911Z,23.80
2018-04-16T00:13:22.044Z,23.80
2018-04-16T00:15:52.610Z,23.80
2018-04-16T00:18:22.999Z,23.80
2018-04-16T00:20:53.315Z,23.80
2018-04-16T00:23:23.650Z,23.80
2018-04-16T00:25:54.020Z,23.80
2018-04-16T00:28:24.754Z,23.80
2018-04-16T00:30:55.304Z,23.80
2018-04-16T00:34:28.918Z,23.80
2018-04-16T00:37:03.915Z,23.80
2018-04-16T00:41:41.127Z,23.70
2018-04-16T00:45:15.531Z,23.80
2018-04-16T00:48:50.325Z,23.70
2018-04-16T00:52:24.523Z,23.70
2018-04-16T00:57:08.521Z,23.70
2018-04-16T01:01:50.323Z,23.70
2018-04-16T01:05:23.164Z,23.70
2018-04-16T01:08:59.727Z,23.70
2018-04-16T01:12:36.337Z,23.70
2018-04-16T01:17:15.162Z,23.70
2018-04-16T01:21:55.955Z,23.70
2018-04-16T01:25:32.498Z,23.70
2018-04-16T01:29:05.999Z,23.70
2018-04-16T01:33:43.323Z,23.70
2018-04-16T01:37:17.866Z,23.70
2018-04-16T01:40:50.468Z,23.70
2018-04-16T01:44:25.164Z,23.70
2018-04-16T01:48:01.959Z,23.70
2018-04-16T01:51:36.146Z,23.70
2018-04-16T01:54:11.282Z,23.70
2018-04-16T01:57:46.307Z,23.70
2018-04-16T02:01:23.201Z,23.70
2018-04-16T02:04:57.974Z,23.70
2018-04-16T02:08:35.774Z,23.60
2018-04-16T02:12:09.626Z,23.60
2018-04-16T02:15:45.413Z,23.60
2018-04-16T02:19:18.134Z,23.60
2018-04-16T02:21:53.186Z,23.60
2018-04-16T02:25:26.139Z,23.60
2018-04-16T02:28:59.107Z,23.60
2018-04-16T02:32:32.863Z,23.60
2018-04-16T02:35:08.574Z,23.60
2018-04-16T02:38:46.423Z,23.60
2018-04-16T02:42:19.466Z,23.60
2018-04-16T02:45:53.269Z,23.60
2018-04-16T02:49:27.189Z,23.60
2018-04-16T02:53:07.189Z,23.60
2018-04-16T02:56:40.158Z,23.60
2018-04-16T02:59:16.283Z,23.60
2018-04-16T03:02:52.744Z,23.60
2018-04-16T03:06:26.030Z,23.50
2018-04-16T03:09:58.702Z,23.50
2018-04-16T03:14:36.723Z,23.50
2018-04-16T03:19:58.710Z,23.50
2018-04-16T03:24:38.914Z,23.50
2018-04-16T03:29:17.059Z,23.50
2018-04-16T03:32:52.551Z,23.60
2018-04-16T03:36:25.946Z,23.60
2018-04-16T03:39:59.978Z,23.60
2018-04-16T03:43:36.165Z,23.60
2018-04-16T03:46:11.415Z,23.50
2018-04-16T03:52:28.747Z,23.50
2018-04-16T03:54:59.326Z,23.50
2018-04-16T03:57:29.631Z,23.50
2018-04-16T04:00:00.152Z,23.50
2018-04-16T04:02:31.235Z,23.50
2018-04-16T04:05:01.735Z,23.50
2018-04-16T04:07:32.200Z,23.50
2018-04-16T04:10:03.078Z,23.50
2018-04-16T04:12:33.337Z,23.50
2018-04-16T04:15:03.687Z,23.50
2018-04-16T04:17:34.026Z,23.50
2018-04-16T04:20:04.366Z,23.50
2018-04-16T04:22:43.307Z,23.50
2018-04-16T04:26:24.866Z,23.50
2018-04-16T04:31:07.177Z,23.50
2018-04-16T04:33:37.539Z,23.50
2018-04-16T04:36:08.120Z,23.50
2018-04-16T04:38:38.422Z,23.40
2018-04-16T04:41:08.770Z,23.40
2018-04-16T04:43:39.087Z,23.40
2018-04-16T04:46:09.419Z,23.40
2018-04-16T04:48:39.744Z,23.40
2018-04-16T04:51:10.069Z,23.40
2018-04-16T04:53:40.426Z,23.40
2018-04-16T04:56:10.710Z,23.50
2018-04-16T04:58:41.082Z,23.50
2018-04-16T05:01:11.398Z,23.50
2018-04-16T05:03:41.964Z,23.50
2018-04-16T05:06:13.210Z,23.50
2018-04-16T05:08:44.277Z,23.50
2018-04-16T05:11:14.538Z,23.50
2018-04-16T05:13:44.874Z,23.50
2018-04-16T05:16:15.206Z,23.50
2018-04-16T05:18:45.533Z,23.50
2018-04-16T05:21:15.867Z,23.50
2018-04-16T05:23:46.171Z,23.50
2018-04-16T05:26:16.479Z,23.40
2018-04-16T05:28:46.822Z,23.40
2018-04-16T05:31:17.118Z,23.40
2018-04-16T05:33:47.440Z,23.40
2018-04-16T05:36:18.269Z,23.40
2018-04-16T05:38:48.593Z,23.40
2018-04-16T05:41:19.742Z,23.40
2018-04-16T05:43:50.143Z,23.40
2018-04-16T05:46:21.386Z,23.40
2018-04-16T05:48:52.484Z,23.40
2018-04-16T05:51:22.810Z,23.40
2018-04-16T05:53:53.130Z,23.40
2018-04-16T05:56:23.508Z,23.40
2018-04-16T05:58:54.632Z,23.40
2018-04-16T06:01:24.973Z,23.40
2018-04-16T06:03:56.046Z,23.40
2018-04-16T06:06:26.432Z,23.40
2018-04-16T06:08:56.954Z,23.40
2018-04-16T06:11:27.275Z,23.40
2018-04-16T06:13:57.650Z,23.40
2018-04-16T06:16:28.030Z,23.40
2018-04-16T06:18:58.771Z,23.40
2018-04-16T06:21:29.076Z,23.50
2018-04-16T06:23:59.394Z,23.40
2018-04-16T06:26:29.735Z,23.50
2018-04-16T06:29:00.047Z,23.40
2018-04-16T06:31:30.355Z,23.40
2018-04-16T06:34:00.728Z,23.40
2018-04-16T06:36:31.339Z,23.40
2018-04-16T06:39:01.634Z,23.40
2018-04-16T06:41:32.642Z,23.40
2018-04-16T06:44:03.763Z,23.40
2018-04-16T06:46:34.819Z,23.40
2018-04-16T06:49:05.979Z,23.40
2018-04-16T06:51:37.158Z,23.40
2018-04-16T06:54:07.532Z,23.40
2018-04-16T06:56:38.772Z,23.40
2018-04-16T06:59:09.909Z,23.40
2018-04-16T07:01:40.181Z,23.40
2018-04-16T07:04:10.551Z,23.40
2018-04-16T07:06:40.958Z,23.40
2018-04-16T07:09:11.323Z,23.40
2018-04-16T07:11:42.359Z,23.40
2018-04-16T07:14:12.677Z,23.40
2018-04-16T07:16:43.048Z,23.40
2018-04-16T07:19:13.474Z,23.40
2018-04-16T07:21:43.891Z,23.40
2018-04-16T07:24:14.339Z,23.40
2018-04-16T07:26:44.599Z,23.40
2018-04-16T07:29:14.927Z,23.40
2018-04-16T07:31:45.224Z,23.40
2018-04-16T07:34:15.591Z,23.40
2018-04-16T07:36:46.268Z,23.40
2018-04-16T07:39:16.590Z,23.40
2018-04-16T07:41:46.934Z,23.40
2018-04-16T07:44:17.849Z,23.40
2018-04-16T07:46:48.219Z,23.30
2018-04-16T07:49:18.622Z,23.30
2018-04-16T07:51:48.956Z,23.40
2018-04-16T07:54:19.340Z,23.30
2018-04-16T07:56:50.389Z,23.30
2018-04-16T07:59:21.695Z,23.30
2018-04-16T08:01:52.018Z,23.30
2018-04-16T08:04:22.358Z,23.30
2018-04-16T08:06:52.846Z,23.30
2018-04-16T08:09:23.350Z,23.30
2018-04-16T08:11:53.994Z,23.40
2018-04-16T08:14:29.329Z,23.40
2018-04-16T08:16:59.778Z,23.40
2018-04-16T08:19:30.227Z,23.40
2018-04-16T08:22:00.668Z,23.40
2018-04-16T08:24:31.147Z,23.40
2018-04-16T08:27:01.790Z,23.30
2018-04-16T08:29:32.234Z,23.40
2018-04-16T08:32:02.741Z,23.40
2018-04-16T08:34:33.199Z,23.40
2018-04-16T08:37:03.795Z,23.40
2018-04-16T08:39:34.134Z,23.40
2018-04-16T08:42:04.590Z,23.30
2018-04-16T08:44:34.964Z,23.30
2018-04-16T08:47:05.222Z,23.30
2018-04-16T08:49:35.727Z,23.40
2018-04-16T08:52:06.019Z,23.30
2018-04-16T08:54:36.346Z,23.40
2018-04-16T08:57:07.465Z,23.40
2018-04-16T08:59:37.763Z,23.40
2018-04-16T09:02:08.222Z,23.40
2018-04-16T09:04:38.722Z,23.30
2018-04-16T09:07:09.128Z,23.40
2018-04-16T09:09:39.453Z,23.40
2018-04-16T09:12:09.941Z,23.40
2018-04-16T09:14:40.499Z,23.40
2018-04-16T09:17:11.603Z,23.40
2018-04-16T09:19:41.991Z,23.40
2018-04-16T09:22:12.306Z,23.40
2018-04-16T09:24:42.665Z,23.40
2018-04-16T09:27:12.941Z,23.40
2018-04-16T09:29:43.983Z,23.40
2018-04-16T09:32:15.083Z,23.40
2018-04-16T09:34:45.406Z,23.40
2018-04-16T09:37:16.074Z,23.40
2018-04-16T09:39:47.134Z,23.40
2018-04-16T09:42:18.210Z,23.40
2018-04-16T09:44:48.543Z,23.40
2018-04-16T09:47:19.727Z,23.40
2018-04-16T09:49:50.046Z,23.40
2018-04-16T09:52:20.354Z,23.40
2018-04-16T09:54:50.718Z,23.40
2018-04-16T09:57:21.813Z,23.40
2018-04-16T09:59:52.318Z,23.40
2018-04-16T10:02:25.960Z,23.40
2018-04-16T10:04:56.291Z,23.40
2018-04-16T10:07:26.571Z,23.50
2018-04-16T10:09:56.890Z,23.50
2018-04-16T10:12:27.190Z,23.50
2018-04-16T10:14:58.278Z,23.50
2018-04-16T10:17:28.566Z,23.50
2018-04-16T10:19:58.892Z,23.40
2018-04-16T10:22:29.202Z,23.50
2018-04-16T10:25:00.302Z,23.50
2018-04-16T10:27:30.587Z,23.50
2018-04-16T10:30:01.910Z,23.50
2018-04-16T10:32:33.000Z,23.50
2018-04-16T10:35:03.490Z,23.50
2018-04-16T10:37:34.882Z,23.50
2018-04-16T10:40:05.218Z,23.50
2018-04-16T10:42:35.557Z,23.50
2018-04-16T10:45:05.918Z,23.50
2018-04-16T10:47:36.965Z,23.50
2018-04-16T10:50:08.142Z,23.50
2018-04-16T10:52:38.518Z,23.50
2018-04-16T10:55:09.222Z,23.50
2018-04-16T10:57:39.547Z,23.50
2018-04-16T11:00:09.911Z,23.50
2018-04-16T11:02:40.962Z,23.50
2018-04-16T11:05:12.295Z,23.50
2018-04-16T11:07:43.358Z,23.50
2018-04-16T11:10:13.690Z,23.50
2018-04-16T11:12:44.158Z,23.50
2018-04-16T11:15:14.465Z,23.50
2018-04-16T11:17:44.782Z,23.50
2018-04-16T11:20:15.082Z,23.50
2018-04-16T11:22:45.417Z,23.50
2018-04-16T11:25:15.706Z,23.50
2018-04-16T11:27:46.126Z,23.50
2018-04-16T11:30:16.618Z,23.50
2018-04-16T11:32:49.951Z,23.50
2018-04-16T11:35:20.272Z,23.50
2018-04-16T11:37:51.511Z,23.50
2018-04-16T11:40:21.906Z,23.50
2018-04-16T11:42:52.239Z,23.50
2018-04-16T11:46:46.718Z,23.50
2018-04-16T11:49:17.190Z,23.50
2018-04-16T11:51:47.510Z,23.50
2018-04-16T11:54:17.807Z,23.50
2018-04-16T11:56:48.174Z,23.50
2018-04-16T11:59:18.493Z,23.50
2018-04-16T12:01:49.039Z,23.50
2018-04-16T12:04:19.332Z,23.50
2018-04-16T12:06:49.686Z,23.50
2018-04-16T12:09:19.991Z,23.50
2018-04-16T12:11:50.987Z,23.50
2018-04-16T12:14:21.282Z,23.40
2018-04-16T12:16:52.346Z,23.40
2018-04-16T12:19:22.894Z,23.40
2018-04-16T12:21:53.311Z,23.40
2018-04-16T12:24:23.614Z,23.40
2018-04-16T12:28:18.625Z,23.40
2018-04-16T12:30:49.705Z,23.40
2018-04-16T12:33:20.075Z,23.40
2018-04-16T12:35:50.367Z,23.40
2018-04-16T12:38:21.136Z,23.40
2018-04-16T12:40:51.563Z,23.40
2018-04-16T12:43:21.875Z,23.40
2018-04-16T12:45:52.203Z,23.40
2018-04-16T12:48:22.538Z,23.40
2018-04-16T12:50:52.911Z,23.40
2018-04-16T12:53:23.288Z,23.40
2018-04-16T12:55:54.802Z,23.40
2018-04-16T12:58:25.097Z,23.40
2018-04-16T13:00:55.434Z,23.40
2018-04-16T13:03:25.754Z,23.50
2018-04-16T13:05:56.095Z,23.50
2018-04-16T13:08:26.595Z,23.50
2018-04-16T13:10:56.957Z,23.50
2018-04-16T13:13:27.287Z,23.50
2018-04-16T13:15:58.972Z,23.50
2018-04-16T13:18:29.393Z,23.50
2018-04-16T13:20:59.742Z,23.50
2018-04-16T13:23:30.830Z,23.50
2018-04-16T13:26:01.230Z,23.50
2018-04-16T13:28:31.758Z,23.50
2018-04-16T13:31:02.130Z,23.40
2018-04-16T13:33:32.466Z,23.40
2018-04-16T13:36:02.803Z,23.40
2018-04-16T13:38:33.454Z,23.40
2018-04-16T13:41:04.522Z,23.40
2018-04-16T13:43:34.945Z,23.40
2018-04-16T13:46:05.227Z,23.40
2018-04-16T13:48:35.655Z,23.40
2018-04-16T13:51:05.960Z,23.40
2018-04-16T13:53:37.158Z,23.40
2018-04-16T13:56:07.444Z,23.40
2018-04-16T13:58:37.752Z,23.40
2018-04-16T14:01:08.110Z,23.40
2018-04-16T14:03:40.150Z,23.40
2018-04-16T14:06:40.882Z,23.40
2018-04-16T14:09:11.198Z,23.40
2018-04-16T14:11:41.508Z,23.50
2018-04-16T14:14:11.822Z,23.50
2018-04-16T14:16:42.203Z,23.50
2018-04-16T14:19:13.949Z,23.50
2018-04-16T14:21:44.274Z,23.50
2018-04-16T14:24:14.728Z,23.50
2018-04-16T14:26:45.051Z,23.50
2018-04-16T14:29:16.183Z,23.60
2018-04-16T14:31:47.250Z,23.50
2018-04-16T14:34:17.576Z,23.50
2018-04-16T14:36:47.868Z,23.50
2018-04-16T14:39:18.543Z,23.40
2018-04-16T14:41:48.880Z,23.30
2018-04-16T14:44:19.356Z,23.20
2018-04-16T14:46:49.678Z,23.10
2018-04-16T14:49:20.085Z,23.10
2018-04-16T14:51:50.410Z,23.10
2018-04-16T14:54:20.853Z,23.00
2018-04-16T14:56:51.218Z,23.00
2018-04-16T14:59:21.534Z,23.00
2018-04-16T15:01:51.887Z,22.90
2018-04-16T15:04:23.830Z,22.70
2018-04-16T15:06:54.223Z,22.60
2018-04-16T15:09:24.754Z,22.60
2018-04-16T15:11:55.147Z,22.60
2018-04-16T15:14:25.509Z,22.60
2018-04-16T15:16:56.626Z,22.60
2018-04-16T15:19:26.942Z,22.60
2018-04-16T15:21:57.264Z,22.50
2018-04-16T15:24:27.586Z,22.40
2018-04-16T15:26:57.920Z,22.20
2018-04-16T15:29:28.271Z,22.10
2018-04-16T15:31:58.565Z,22.10
2018-04-16T15:34:28.967Z,22.00
2018-04-16T15:36:59.410Z,22.00
2018-04-16T15:39:30.014Z,21.90
2018-04-16T15:42:01.199Z,21.80
2018-04-16T15:44:31.486Z,21.80
2018-04-16T15:47:01.781Z,21.70
2018-04-16T15:49:32.908Z,21.60
2018-04-16T15:52:03.250Z,21.60
2018-04-16T15:54:34.350Z,21.60
2018-04-16T15:57:04.642Z,21.60
2018-04-16T15:59:34.931Z,21.60
2018-04-16T16:02:05.263Z,21.60
2018-04-16T16:07:11.591Z,21.60
2018-04-16T16:09:41.866Z,21.70
2018-04-16T16:12:12.178Z,21.70
2018-04-16T16:14:42.903Z,21.70
2018-04-16T16:17:13.263Z,21.70
2018-04-16T16:19:45.058Z,21.70
2018-04-16T16:22:15.335Z,21.70
2018-04-16T16:24:46.534Z,21.60
2018-04-16T16:27:17.746Z,21.60
2018-04-16T16:29:48.086Z,21.60
2018-04-16T16:32:18.654Z,21.60
2018-04-16T16:34:49.063Z,21.60
2018-04-16T16:37:19.399Z,21.60
2018-04-16T16:39:50.103Z,21.70
2018-04-16T16:42:20.399Z,21.80
2018-04-16T16:44:54.674Z,21.90
2018-04-16T16:47:25.011Z,21.90
2018-04-16T16:49:55.359Z,22.00
2018-04-16T16:52:25.681Z,22.00
2018-04-16T16:54:56.099Z,22.00
2018-04-16T16:57:27.230Z,22.00
2018-04-16T16:59:57.815Z,22.00
2018-04-16T17:02:28.483Z,22.00
2018-04-16T17:04:58.910Z,22.00
2018-04-16T17:07:30.187Z,22.10
2018-04-16T17:10:00.602Z,22.10
2018-04-16T17:12:30.956Z,22.10
2018-04-16T17:15:02.062Z,22.10
2018-04-16T17:17:33.537Z,22.10
2018-04-16T17:20:03.915Z,22.10
2018-04-16T17:22:35.126Z,22.20
2018-04-16T17:25:06.356Z,22.20
2018-04-16T17:27:37.506Z,22.20
2018-04-16T17:30:08.758Z,22.30
2018-04-16T17:32:39.992Z,22.30
2018-04-16T17:35:11.627Z,22.30
2018-04-16T17:37:42.129Z,22.30
2018-04-16T17:40:12.761Z,22.30
2018-04-16T17:42:43.182Z,22.30
2018-04-16T17:45:13.562Z,22.30
2018-04-16T17:47:44.659Z,22.30
2018-04-16T17:50:15.030Z,22.30
2018-04-16T17:52:45.346Z,22.40
2018-04-16T17:55:20.497Z,22.40
2018-04-16T17:57:51.627Z,22.50
2018-04-16T18:00:21.971Z,22.40
2018-04-16T18:02:52.596Z,22.50
2018-04-16T18:05:23.016Z,22.50
2018-04-16T18:07:53.394Z,22.60
2018-04-16T18:10:23.771Z,22.60
2018-04-16T18:12:55.327Z,22.60
2018-04-16T18:15:26.459Z,22.60
2018-04-16T18:17:56.811Z,22.60
2018-04-16T18:20:34.636Z,22.60
2018-04-16T18:23:05.157Z,22.60
2018-04-16T18:25:35.594Z,22.60
2018-04-16T18:28:06.044Z,22.70
2018-04-16T18:30:36.482Z,22.70
2018-04-16T18:33:06.842Z,22.70
2018-04-16T18:35:37.930Z,22.70
2018-04-16T18:38:08.307Z,22.70
2018-04-16T18:40:39.706Z,22.70
2018-04-16T18:43:10.122Z,22.70
2018-04-16T18:45:40.427Z,22.70
2018-04-16T18:48:10.792Z,22.70
2018-04-16T18:50:41.126Z,22.70
2018-04-16T18:53:11.415Z,22.80
2018-04-16T18:58:18.767Z,22.70
2018-04-16T19:00:49.249Z,22.70
2018-04-16T19:03:20.510Z,22.70
2018-04-16T19:05:50.839Z,22.70
2018-04-16T19:08:21.215Z,22.70
2018-04-16T19:10:52.366Z,22.70
2018-04-16T19:13:23.462Z,22.70
2018-04-16T19:15:53.942Z,22.70
2018-04-16T19:18:25.146Z,22.70
2018-04-16T19:20:59.533Z,22.70
2018-04-16T19:23:30.023Z,22.70
2018-04-16T19:26:01.086Z,22.70
2018-04-16T19:28:32.258Z,22.70
2018-04-16T19:31:02.559Z,22.60
2018-04-16T19:33:37.946Z,22.60
2018-04-16T19:36:08.405Z,22.60
2018-04-16T19:38:39.471Z,22.60
2018-04-16T19:41:10.139Z,22.60
2018-04-16T19:43:40.707Z,22.60
2018-04-16T19:46:11.095Z,22.60
2018-04-16T19:48:45.502Z,22.60
2018-04-16T19:53:53.625Z,22.70
2018-04-16T19:56:27.876Z,22.70
2018-04-16T19:58:59.026Z,22.70
2018-04-16T20:01:29.542Z,22.70
2018-04-16T20:04:01.719Z,22.80
2018-04-16T20:06:32.042Z,22.70
2018-04-16T20:09:03.237Z,22.70
2018-04-16T20:11:33.970Z,22.70
2018-04-16T20:14:04.330Z,22.70
2018-04-16T20:16:34.679Z,22.70
2018-04-16T20:19:06.171Z,22.70
2018-04-16T20:21:36.619Z,22.70
2018-04-16T20:24:06.991Z,22.60
2018-04-16T20:26:37.490Z,22.60
2018-04-16T20:29:07.830Z,22.60
2018-04-16T20:31:38.267Z,22.60
2018-04-16T20:34:08.642Z,22.60
2018-04-16T20:36:39.263Z,22.60
2018-04-16T20:39:09.601Z,22.60
2018-04-16T20:41:40.303Z,22.50
2018-04-16T20:44:12.407Z,22.50
2018-04-16T20:46:42.738Z,22.60
2018-04-16T20:49:13.158Z,22.60
2018-04-16T20:51:44.382Z,22.60
2018-04-16T20:54:15.514Z,22.60
2018-04-16T20:56:46.578Z,22.60
2018-04-16T20:59:16.891Z,22.60
2018-04-16T21:01:54.823Z,22.60
2018-04-16T21:04:25.314Z,22.60
2018-04-16T21:06:55.776Z,22.70
2018-04-16T21:09:26.114Z,22.60
2018-04-16T21:11:56.514Z,22.60
2018-04-16T21:14:26.936Z,22.60
2018-04-16T21:16:57.264Z,22.60
2018-04-16T21:19:27.634Z,22.60
2018-04-16T21:21:58.286Z,22.70
2018-04-16T21:24:28.618Z,22.80
2018-04-16T21:26:59.067Z,22.80
2018-04-16T21:29:30.149Z,22.90
2018-04-16T21:32:00.485Z,22.90
2018-04-16T21:34:30.810Z,23.00
2018-04-16T21:37:01.122Z,23.10
2018-04-16T21:39:31.447Z,23.10
2018-04-16T21:42:02.205Z,23.20
2018-04-16T21:44:33.090Z,23.20
2018-04-16T21:47:03.502Z,23.20
2018-04-16T21:49:34.590Z,23.30
2018-04-16T21:52:04.890Z,23.30
2018-04-16T21:54:35.218Z,23.40
2018-04-16T21:57:05.539Z,23.40
2018-04-16T21:59:35.901Z,23.40
2018-04-16T22:02:06.215Z,23.50
2018-04-16T22:04:36.630Z,23.50
2018-04-16T22:07:06.985Z,23.50
2018-04-16T22:09:37.282Z,23.50
2018-04-16T22:12:07.678Z,23.60
2018-04-16T22:14:38.859Z,23.70
2018-04-16T22:17:09.333Z,23.60
2018-04-16T22:19:40.986Z,23.70
2018-04-16T22:22:11.362Z,23.70
2018-04-16T22:24:41.742Z,23.70
2018-04-16T22:27:12.170Z,23.70
2018-04-16T22:29:43.299Z,23.70
2018-04-16T22:34:51.545Z,23.80
2018-04-16T22:37:22.718Z,23.80
2018-04-16T22:39:53.930Z,23.80
2018-04-16T22:42:24.817Z,23.80
2018-04-16T22:44:55.200Z,23.80
2018-04-16T22:47:26.378Z,23.80
2018-04-16T22:49:56.700Z,23.70
2018-04-16T22:52:27.278Z,23.80
2018-04-16T22:54:57.659Z,23.80
2018-04-16T22:57:28.950Z,23.80
2018-04-16T22:59:59.326Z,23.80
2018-04-16T23:02:29.720Z,23.80
2018-04-16T23:05:00.007Z,23.80
2018-04-16T23:07:30.491Z,23.70
2018-04-16T23:10:01.619Z,23.80
2018-04-16T23:12:32.863Z,23.80
2018-04-16T23:15:04.024Z,23.70
2018-04-16T23:17:35.135Z,23.80
2018-04-16T23:20:07.923Z,23.70
2018-04-16T23:22:38.227Z,23.80
2018-04-16T23:25:09.329Z,23.80
2018-04-16T23:27:39.630Z,23.70
2018-04-16T23:30:10.876Z,23.80
2018-04-16T23:32:41.974Z,23.80
2018-04-16T23:35:12.266Z,23.70
2018-04-16T23:37:42.596Z,23.80
2018-04-16T23:40:12.926Z,23.80
2018-04-16T23:42:43.472Z,23.80
2018-04-16T23:45:13.746Z,23.80
2018-04-16T23:47:44.843Z,23.80
2018-04-16T23:50:15.135Z,23.70
2018-04-16T23:52:45.451Z,23.80
2018-04-16T23:55:17.254Z,23.80
2018-04-16T23:57:47.577Z,23.70
